Time;durP1;ratioP1;P1;durP2;ratioP2;P2;SDS_P1;SDS_P2;PMS_P1;PMS_P2;Temp;Humidity;BMP_temperature;BMP_pressure;BME280_temperature;BME280_humidity;BME280_pressure;Samples;Min_cycle;Max_cycle;Signal;HPM_P1;HPM_P2
2023/09/28 00:03:00;;;;;;;29.73;26.83;;;;;;;;;;5012214;28;20091;-58
2023/09/28 00:05:25;;;;;;;23.13;21.25;;;;;;;;;;5005288;28;20022;-59
2023/09/28 00:07:50;;;;;;;18.83;17.03;;;;;;;;;;5008391;28;20030;-59
2023/09/28 00:10:16;;;;;;;36.35;33.67;;;;;;;;;;5008686;28;20037;-58
2023/09/28 00:12:42;;;;;;;23.45;21.55;;;;;;;;;;5010949;28;20466;-59
2023/09/28 00:15:08;;;;;;;24.30;22.20;;;;;;;;;;5011941;28;20025;-58
2023/09/28 00:17:34;;;;;;;17.58;15.98;;;;;;;;;;5009071;28;20021;-59
2023/09/28 00:19:59;;;;;;;31.42;29.00;;;;;;;;;;5009329;28;20429;-58
2023/09/28 00:22:26;;;;;;;49.13;45.30;;;;;;;;;;5012087;28;20042;-59
2023/09/28 00:24:51;;;;;;;37.78;35.05;;;;;;;;;;5009620;28;20105;-58
2023/09/28 00:27:17;;;;;;;22.67;20.60;;;;;;;;;;5011193;28;20065;-59
2023/09/28 00:29:42;;;;;;;27.97;25.70;;;;;;;;;;5010901;28;20108;-60
2023/09/28 00:32:08;;;;;;;76.93;71.60;;;;;;;;;;5006721;28;20116;-61
2023/09/28 00:34:33;;;;;;;21.85;19.88;;;;;;;;;;5009405;28;20093;-60
2023/09/28 00:36:58;;;;;;;25.87;23.80;;;;;;;;;;5010433;28;20034;-61
2023/09/28 00:39:23;;;;;;;29.13;26.63;;;;;;;;;;5009945;28;20476;-60
2023/09/28 00:41:49;;;;;;;40.20;37.50;;;;;;;;;;5012727;28;20088;-58
2023/09/28 00:44:14;;;;;;;25.10;22.80;;;;;;;;;;5010934;28;20026;-59
2023/09/28 00:46:39;;;;;;;56.83;53.10;;;;;;;;;;5011825;28;20022;-58
2023/09/28 00:49:05;;;;;;;42.47;39.23;;;;;;;;;;5009553;28;20472;-58
2023/09/28 00:51:31;;;;;;;27.33;25.20;;;;;;;;;;5007476;28;20045;-58
2023/09/28 00:53:59;;;;;;;52.45;48.85;;;;;;;;;;5003212;28;20509;-58
2023/09/28 00:56:24;;;;;;;31.95;29.10;;;;;;;;;;5004462;28;20553;-60
2023/09/28 00:58:52;;;;;;;22.73;20.73;;;;;;;;;;5003432;28;20105;-60
2023/09/28 01:01:17;;;;;;;21.58;19.88;;;;;;;;;;5008485;28;20166;-58
2023/09/28 01:03:42;;;;;;;18.48;16.63;;;;;;;;;;5007554;28;21846;-60
2023/09/28 01:06:08;;;;;;;73.30;68.50;;;;;;;;;;5008319;28;20033;-61
2023/09/28 01:08:33;;;;;;;26.77;24.30;;;;;;;;;;5004570;28;20022;-60
2023/09/28 01:10:58;;;;;;;25.33;23.30;;;;;;;;;;5011639;28;20156;-58
2023/09/28 01:13:24;;;;;;;16.63;13.43;;;;;;;;;;5006042;28;20014;-58
2023/09/28 01:15:49;;;;;;;26.73;24.30;;;;;;;;;;5007603;28;20114;-58
2023/09/28 01:18:15;;;;;;;40.42;37.58;;;;;;;;;;5012319;28;20390;-59
2023/09/28 01:20:43;;;;;;;35.17;32.55;;;;;;;;;;5007609;28;20579;-58
2023/09/28 01:23:08;;;;;;;30.75;28.40;;;;;;;;;;5003321;28;20378;-59
2023/09/28 01:25:34;;;;;;;22.88;20.95;;;;;;;;;;5011360;28;20024;-59
2023/09/28 01:27:59;;;;;;;32.00;29.33;;;;;;;;;;5019545;28;20035;-60
2023/09/28 01:30:24;;;;;;;26.38;24.17;;;;;;;;;;5009421;28;20026;-60
2023/09/28 01:32:50;;;;;;;38.33;35.42;;;;;;;;;;5010905;28;20030;-60
2023/09/28 01:35:16;;;;;;;65.43;60.97;;;;;;;;;;5010920;28;20395;-60
2023/09/28 01:37:55;;;;;;;40.65;37.55;;;;;;;;;;5010890;28;20100;-59
2023/09/28 01:40:20;;;;;;;50.88;47.15;;;;;;;;;;5008821;28;20021;-60
2023/09/28 01:42:45;;;;;;;63.58;58.78;;;;;;;;;;5011098;28;20033;-60
2023/09/28 01:45:11;;;;;;;19.60;17.80;;;;;;;;;;5010772;28;20030;-60
2023/09/28 01:47:36;;;;;;;24.23;22.30;;;;;;;;;;5011303;28;20029;-60
2023/09/28 01:50:03;;;;;;;53.60;49.93;;;;;;;;;;5010507;28;20021;-58
2023/09/28 01:52:28;;;;;;;26.48;24.40;;;;;;;;;;5011774;28;20468;-61
2023/09/28 01:54:53;;;;;;;28.13;25.77;;;;;;;;;;5009863;28;20025;-59
2023/09/28 01:57:19;;;;;;;28.40;25.95;;;;;;;;;;5008442;28;20057;-59
2023/09/28 01:59:44;;;;;;;18.58;16.70;;;;;;;;;;5010079;28;20034;-60
2023/09/28 02:02:10;;;;;;;18.38;16.60;;;;;;;;;;5010492;28;20053;-59
2023/09/28 02:04:38;;;;;;;26.25;23.92;;;;;;;;;;5010514;28;20025;-58
2023/09/28 02:07:04;;;;;;;22.80;20.67;;;;;;;;;;5006265;28;20032;-59
2023/09/28 02:09:29;;;;;;;45.42;42.20;;;;;;;;;;5009106;28;20026;-59
2023/09/28 02:11:54;;;;;;;17.40;15.68;;;;;;;;;;5009539;28;20076;-58
2023/09/28 02:14:19;;;;;;;62.83;58.40;;;;;;;;;;5016367;28;20018;-59
2023/09/28 02:16:45;;;;;;;23.02;20.88;;;;;;;;;;5015982;28;20121;-59
2023/09/28 02:19:10;;;;;;;75.82;70.63;;;;;;;;;;5010031;28;20470;-58
2023/09/28 02:21:36;;;;;;;55.78;51.75;;;;;;;;;;5010651;28;20028;-57
2023/09/28 02:24:01;;;;;;;22.23;20.38;;;;;;;;;;5005310;28;20030;-59
2023/09/28 02:26:26;;;;;;;42.33;39.17;;;;;;;;;;5010627;28;20022;-60
2023/09/28 02:28:52;;;;;;;21.63;19.70;;;;;;;;;;5011824;28;20026;-61
2023/09/28 02:31:17;;;;;;;35.65;32.60;;;;;;;;;;5011036;28;20033;-60
2023/09/28 02:33:43;;;;;;;45.10;41.87;;;;;;;;;;5011552;28;20022;-58
2023/09/28 02:36:08;;;;;;;22.38;20.50;;;;;;;;;;5013257;28;20098;-58
2023/09/28 02:38:33;;;;;;;19.83;18.00;;;;;;;;;;5010665;28;20097;-60
2023/09/28 02:40:59;;;;;;;35.20;32.57;;;;;;;;;;5010534;28;20441;-59
2023/09/28 02:43:24;;;;;;;46.07;42.83;;;;;;;;;;5014553;28;20498;-59
2023/09/28 02:45:49;;;;;;;31.27;28.77;;;;;;;;;;5013587;28;20619;-59
2023/09/28 02:48:15;;;;;;;58.90;54.58;;;;;;;;;;5014117;28;20029;-59
2023/09/28 02:50:40;;;;;;;15.65;14.05;;;;;;;;;;5013830;28;20033;-59
2023/09/28 02:53:06;;;;;;;46.37;43.13;;;;;;;;;;5014923;28;20014;-60
2023/09/28 02:55:32;;;;;;;65.28;60.47;;;;;;;;;;5011832;28;20022;-59
2023/09/28 02:57:57;;;;;;;88.63;81.97;;;;;;;;;;5013901;28;20032;-59
2023/09/28 03:02:50;;;;;;;21.03;18.87;;;;;;;;;;5013206;28;20032;-60
2023/09/28 03:05:18;;;;;;;41.78;38.55;;;;;;;;;;5012986;28;20022;-57
2023/09/28 03:07:43;;;;;;;26.90;24.25;;;;;;;;;;5011456;28;20037;-58
2023/09/28 03:10:10;;;;;;;31.97;29.00;;;;;;;;;;5010642;28;20022;-59
2023/09/28 03:12:35;;;;;;;21.75;20.05;;;;;;;;;;5008827;28;20551;-61
2023/09/28 03:15:04;;;;;;;49.25;45.97;;;;;;;;;;5012800;28;20022;-58
2023/09/28 03:17:29;;;;;;;30.52;28.15;;;;;;;;;;5013026;28;20029;-58
2023/09/28 03:19:54;;;;;;;56.53;52.73;;;;;;;;;;5012263;28;20474;-59
2023/09/28 03:22:20;;;;;;;35.25;32.65;;;;;;;;;;5010778;28;20445;-60
2023/09/28 03:24:46;;;;;;;25.33;23.40;;;;;;;;;;5013311;28;20494;-58
2023/09/28 03:27:11;;;;;;;23.25;21.42;;;;;;;;;;5013614;28;20022;-60
2023/09/28 03:29:36;;;;;;;42.10;38.75;;;;;;;;;;5013260;28;20038;-60
2023/09/28 03:32:02;;;;;;;36.50;33.87;;;;;;;;;;5011956;28;20036;-60
2023/09/28 03:34:27;;;;;;;19.57;17.70;;;;;;;;;;5013477;28;20022;-60
2023/09/28 03:36:52;;;;;;;24.23;22.43;;;;;;;;;;5011431;28;20040;-60
2023/09/28 03:39:18;;;;;;;76.72;71.38;;;;;;;;;;5012257;28;20088;-60
2023/09/28 03:41:43;;;;;;;57.92;54.00;;;;;;;;;;5011056;28;20032;-60
2023/09/28 03:44:09;;;;;;;21.53;19.73;;;;;;;;;;5012718;28;20515;-59
2023/09/28 03:46:34;;;;;;;41.10;38.13;;;;;;;;;;5013108;28;20037;-61
2023/09/28 03:49:00;;;;;;;40.38;37.13;;;;;;;;;;5013123;28;20517;-59
2023/09/28 03:51:25;;;;;;;29.67;27.33;;;;;;;;;;5008799;28;20145;-61
2023/09/28 03:53:50;;;;;;;57.28;53.15;;;;;;;;;;5015133;28;21118;-60
2023/09/28 03:56:15;;;;;;;24.17;22.17;;;;;;;;;;5009867;28;20478;-59
2023/09/28 03:58:40;;;;;;;22.63;20.53;;;;;;;;;;5012911;28;20018;-59
2023/09/28 04:01:07;;;;;;;30.17;27.87;;;;;;;;;;5012691;28;20100;-60
2023/09/28 04:03:33;;;;;;;22.13;20.17;;;;;;;;;;5009052;28;20402;-60
2023/09/28 04:05:58;;;;;;;40.50;37.53;;;;;;;;;;5010950;28;20049;-61
2023/09/28 04:08:24;;;;;;;37.20;34.40;;;;;;;;;;5010849;28;20120;-60
2023/09/28 04:10:50;;;;;;;48.67;45.05;;;;;;;;;;5017117;28;20032;-59
2023/09/28 04:13:15;;;;;;;;;;;;;;;;;;5010798;28;20025;-60
2023/09/28 04:15:40;;;;;;;36.47;33.58;;;;;;;;;;5012154;28;20005;-60
2023/09/28 04:18:06;;;;;;;19.63;17.87;;;;;;;;;;5009166;28;20489;-60
2023/09/28 04:20:31;;;;;;;29.70;27.40;;;;;;;;;;5010119;28;20030;-60
2023/09/28 04:22:57;;;;;;;23.02;20.85;;;;;;;;;;5006913;28;20026;-60
2023/09/28 04:25:26;;;;;;;24.27;22.25;;;;;;;;;;5011385;28;20026;-60
2023/09/28 04:27:51;;;;;;;25.35;23.33;;;;;;;;;;5010632;28;20029;-60
2023/09/28 04:30:16;;;;;;;19.30;17.40;;;;;;;;;;5007142;28;20666;-60
2023/09/28 04:32:42;;;;;;;37.03;34.20;;;;;;;;;;5009552;28;20037;-60
2023/09/28 04:35:10;;;;;;;22.90;20.88;;;;;;;;;;5002754;28;20445;-60
2023/09/28 04:37:35;;;;;;;22.00;20.10;;;;;;;;;;5018535;28;20473;-60
2023/09/28 04:40:00;;;;;;;31.93;29.37;;;;;;;;;;5017082;28;20125;-59
2023/09/28 04:42:26;;;;;;;41.03;37.93;;;;;;;;;;5028951;28;20118;-59
2023/09/28 04:44:51;;;;;;;25.20;23.02;;;;;;;;;;5014502;28;20445;-60
2023/09/28 04:47:16;;;;;;;27.53;25.20;;;;;;;;;;4993664;28;20084;-61
2023/09/28 04:49:42;;;;;;;34.87;32.27;;;;;;;;;;5000625;28;20391;-60
2023/09/28 04:52:09;;;;;;;26.48;24.15;;;;;;;;;;5013559;28;20983;-60
2023/09/28 04:54:34;;;;;;;54.13;49.75;;;;;;;;;;4995642;28;20304;-60
2023/09/28 04:57:00;;;;;;;29.77;27.33;;;;;;;;;;5008129;28;20053;-60
2023/09/28 04:59:25;;;;;;;28.53;26.00;;;;;;;;;;5010900;28;20170;-59
2023/09/28 05:01:50;;;;;;;27.88;25.48;;;;;;;;;;5013182;28;20029;-59
2023/09/28 05:04:16;;;;;;;33.42;30.58;;;;;;;;;;5005874;28;20061;-60
2023/09/28 05:06:41;;;;;;;41.92;38.72;;;;;;;;;;5008198;28;20021;-59
2023/09/28 05:09:07;;;;;;;32.77;30.17;;;;;;;;;;5007811;28;20021;-60
2023/09/28 05:11:32;;;;;;;22.75;20.52;;;;;;;;;;5007448;28;20108;-60
2023/09/28 05:13:57;;;;;;;35.80;32.80;;;;;;;;;;5018780;28;20037;-60
2023/09/28 05:16:23;;;;;;;24.23;21.70;;;;;;;;;;5011333;28;20390;-60
2023/09/28 05:18:48;;;;;;;29.98;27.08;;;;;;;;;;5011033;28;20026;-60
2023/09/28 05:21:13;;;;;;;22.87;20.43;;;;;;;;;;5010991;28;20531;-60
2023/09/28 05:23:38;;;;;;;21.90;19.70;;;;;;;;;;4997429;28;20029;-59
2023/09/28 05:26:03;;;;;;;26.67;24.07;;;;;;;;;;4993080;28;20562;-60
2023/09/28 05:28:29;;;;;;;27.83;25.25;;;;;;;;;;5002518;28;20025;-60
2023/09/28 05:30:54;;;;;;;42.10;39.15;;;;;;;;;;5022183;28;20017;-59
2023/09/28 05:33:19;;;;;;;30.77;28.20;;;;;;;;;;5031467;28;20029;-59
2023/09/28 05:35:46;;;;;;;23.80;21.60;;;;;;;;;;5031534;28;20409;-60
2023/09/28 05:38:11;;;;;;;86.10;79.50;;;;;;;;;;5030449;28;20021;-60
2023/09/28 05:40:36;;;;;;;69.53;64.78;;;;;;;;;;5030825;28;20442;-61
2023/09/28 05:43:01;;;;;;;23.30;21.40;;;;;;;;;;5021686;28;20088;-60
2023/09/28 05:45:26;;;;;;;47.80;44.33;;;;;;;;;;5022968;28;20434;-60
2023/09/28 05:47:51;;;;;;;20.80;19.00;;;;;;;;;;5016281;28;20025;-59
2023/09/28 05:50:18;;;;;;;23.93;21.90;;;;;;;;;;5009169;28;20032;-59
2023/09/28 05:52:43;;;;;;;32.13;29.45;;;;;;;;;;5018393;28;20029;-59
2023/09/28 05:55:09;;;;;;;22.13;20.17;;;;;;;;;;5011133;28;20034;-58
2023/09/28 05:57:34;;;;;;;59.50;54.80;;;;;;;;;;5022633;28;20035;-59
2023/09/28 06:00:00;;;;;;;26.23;24.10;;;;;;;;;;5021036;28;20026;-59
2023/09/28 06:02:25;;;;;;;39.00;35.93;;;;;;;;;;5015500;28;20024;-60
2023/09/28 06:04:50;;;;;;;32.20;29.70;;;;;;;;;;5015721;28;20022;-59
2023/09/28 06:07:15;;;;;;;27.92;25.67;;;;;;;;;;5010944;28;20093;-59
2023/09/28 06:09:41;;;;;;;29.38;27.15;;;;;;;;;;5009872;28;20393;-59
2023/09/28 06:12:06;;;;;;;43.83;40.33;;;;;;;;;;5011272;28;20026;-58
2023/09/28 06:14:32;;;;;;;39.72;36.60;;;;;;;;;;5014229;28;20029;-59
2023/09/28 06:16:58;;;;;;;30.33;27.90;;;;;;;;;;5011270;28;20168;-59
2023/09/28 06:19:23;;;;;;;83.13;77.30;;;;;;;;;;5011440;28;20576;-59
2023/09/28 06:21:48;;;;;;;50.93;47.63;;;;;;;;;;5011915;28;20045;-59
2023/09/28 06:24:14;;;;;;;23.43;21.23;;;;;;;;;;5012408;28;20026;-60
2023/09/28 06:26:39;;;;;;;96.93;90.30;;;;;;;;;;5012351;28;20033;-60
2023/09/28 06:29:04;;;;;;;41.23;38.00;;;;;;;;;;5019569;28;20105;-60
2023/09/28 06:31:29;;;;;;;44.27;41.47;;;;;;;;;;5014168;28;20401;-59
2023/09/28 06:33:55;;;;;;;115.35;107.15;;;;;;;;;;5013599;28;20109;-59
2023/09/28 06:36:20;;;;;;;58.63;54.23;;;;;;;;;;5010838;28;20021;-60
2023/09/28 06:38:46;;;;;;;103.35;96.65;;;;;;;;;;5010537;28;20026;-60
2023/09/28 06:41:11;;;;;;;36.03;33.47;;;;;;;;;;5008953;28;20322;-58
2023/09/28 06:43:36;;;;;;;68.57;63.70;;;;;;;;;;5017888;28;20034;-59
2023/09/28 06:46:01;;;;;;;73.70;68.38;;;;;;;;;;5025567;28;20474;-59
2023/09/28 06:48:27;;;;;;;91.70;84.87;;;;;;;;;;5010542;28;20030;-59
2023/09/28 06:50:56;;;;;;;37.10;34.40;;;;;;;;;;5010422;28;20435;-59
2023/09/28 06:53:21;;;;;;;118.28;109.82;;;;;;;;;;5009801;28;20029;-60
2023/09/28 06:55:46;;;;;;;37.63;35.00;;;;;;;;;;5010553;28;20025;-61
2023/09/28 06:58:14;;;;;;;38.93;35.90;;;;;;;;;;5014641;28;20104;-58
2023/09/28 07:00:39;;;;;;;53.03;49.35;;;;;;;;;;5013622;28;20018;-57
2023/09/28 07:03:05;;;;;;;24.80;22.73;;;;;;;;;;5010594;28;20029;-59
2023/09/28 07:05:33;;;;;;;33.13;30.58;;;;;;;;;;5010737;28;20029;-58
2023/09/28 07:07:58;;;;;;;52.58;48.92;;;;;;;;;;5011006;28;20030;-58
2023/09/28 07:10:23;;;;;;;61.77;57.33;;;;;;;;;;5009254;28;20029;-58
2023/09/28 07:12:49;;;;;;;41.67;38.80;;;;;;;;;;5023756;28;20444;-59
2023/09/28 07:15:14;;;;;;;53.67;49.90;;;;;;;;;;5011639;28;20026;-58
2023/09/28 07:17:39;;;;;;;30.77;28.50;;;;;;;;;;5010519;28;20029;-58
2023/09/28 07:20:05;;;;;;;89.77;83.60;;;;;;;;;;5010075;28;20049;-60
2023/09/28 07:22:30;;;;;;;54.03;50.30;;;;;;;;;;5010676;28;20022;-60
2023/09/28 07:24:56;;;;;;;82.63;76.83;;;;;;;;;;5008781;28;20018;-60
2023/09/28 07:27:21;;;;;;;43.22;39.97;;;;;;;;;;5020602;28;20025;-61
2023/09/28 07:29:46;;;;;;;43.27;39.83;;;;;;;;;;5033308;28;20079;-58
2023/09/28 07:32:11;;;;;;;71.38;65.90;;;;;;;;;;5033904;28;20420;-60
2023/09/28 07:34:37;;;;;;;90.82;85.05;;;;;;;;;;5033640;28;20495;-61
2023/09/28 07:37:03;;;;;;;65.83;61.43;;;;;;;;;;5033432;28;20033;-59
2023/09/28 07:39:29;;;;;;;;;;;;;;;;;;5030115;28;20036;-58
2023/09/28 07:41:54;;;;;;;50.15;46.75;;;;;;;;;;5021866;28;19906;-59
2023/09/28 07:44:19;;;;;;;288.00;234.82;;;;;;;;;;5032931;28;20025;-58
2023/09/28 07:46:45;;;;;;;138.80;129.27;;;;;;;;;;5024785;28;20021;-57
2023/09/28 07:49:10;;;;;;;95.82;89.50;;;;;;;;;;5023244;28;20021;-58
2023/09/28 07:51:36;;;;;;;98.63;92.05;;;;;;;;;;5033676;28;20031;-61
2023/09/28 07:54:01;;;;;;;114.38;106.13;;;;;;;;;;5033267;28;20034;-59
2023/09/28 07:56:26;;;;;;;123.23;114.20;;;;;;;;;;5021180;28;20040;-59
2023/09/28 07:58:51;;;;;;;123.28;114.88;;;;;;;;;;5018814;28;20025;-59
2023/09/28 08:01:17;;;;;;;105.00;98.33;;;;;;;;;;5020518;28;20017;-58
2023/09/28 08:03:42;;;;;;;152.07;141.82;;;;;;;;;;5023358;28;20021;-60
2023/09/28 08:06:09;;;;;;;81.37;75.90;;;;;;;;;;5033204;28;20030;-60
2023/09/28 08:08:34;;;;;;;126.88;117.75;;;;;;;;;;5025967;28;20022;-61
2023/09/28 08:11:00;;;;;;;163.13;149.77;;;;;;;;;;5018352;28;20022;-59
2023/09/28 08:13:25;;;;;;;80.32;75.28;;;;;;;;;;5025167;28;20088;-58
2023/09/28 08:15:51;;;;;;;135.35;124.53;;;;;;;;;;5033141;28;20030;-60
2023/09/28 08:18:16;;;;;;;99.87;93.70;;;;;;;;;;5033100;28;20488;-58
2023/09/28 08:20:41;;;;;;;140.20;130.20;;;;;;;;;;5032313;28;20025;-58
2023/09/28 08:23:06;;;;;;;123.57;114.47;;;;;;;;;;5032908;28;20017;-59
2023/09/28 08:25:31;;;;;;;196.23;181.77;;;;;;;;;;5022721;28;20018;-60
2023/09/28 08:27:56;;;;;;;156.10;143.50;;;;;;;;;;5013861;28;20105;-62
2023/09/28 08:30:22;;;;;;;141.03;130.60;;;;;;;;;;5023452;28;20083;-59
2023/09/28 08:32:47;;;;;;;139.00;129.53;;;;;;;;;;5032494;28;20040;-59
2023/09/28 08:35:12;;;;;;;171.00;158.82;;;;;;;;;;5032740;28;20020;-59
2023/09/28 08:37:37;;;;;;;119.75;112.20;;;;;;;;;;5032305;28;20022;-60
2023/09/28 08:40:04;;;;;;;116.37;108.93;;;;;;;;;;5027515;28;20018;-59
2023/09/28 08:42:29;;;;;;;;;;;;;;;;;;5025379;28;20473;-59
2023/09/28 08:44:59;;;;;;;127.47;119.00;;;;;;;;;;5032572;28;20369;-59
2023/09/28 08:47:25;;;;;;;159.55;148.60;;;;;;;;;;5032102;28;20064;-59
2023/09/28 08:49:50;;;;;;;220.20;201.90;;;;;;;;;;5032064;28;20045;-61
2023/09/28 08:52:16;;;;;;;165.93;154.40;;;;;;;;;;5032723;28;20019;-59
2023/09/28 08:54:41;;;;;;;254.25;234.20;;;;;;;;;;5026477;28;20021;-61
2023/09/28 08:57:07;;;;;;;168.95;156.60;;;;;;;;;;5022745;28;20024;-60
2023/09/28 08:59:33;;;;;;;202.80;186.98;;;;;;;;;;5021191;28;20040;-58
2023/09/28 09:02:00;;;;;;;190.32;177.75;;;;;;;;;;5020891;28;20030;-61
2023/09/28 09:04:25;;;;;;;214.77;198.60;;;;;;;;;;5017872;28;20053;-58
2023/09/28 09:06:50;;;;;;;224.40;207.18;;;;;;;;;;5018183;28;20470;-59
2023/09/28 09:09:17;;;;;;;203.52;187.73;;;;;;;;;;5013785;28;20088;-60
2023/09/28 09:11:52;;;;;;;219.45;202.23;;;;;;;;;;5016913;28;20041;-59
2023/09/28 09:14:18;;;;;;;144.90;134.95;;;;;;;;;;5014650;28;20026;-60
2023/09/28 09:16:43;;;;;;;202.88;187.15;;;;;;;;;;5023212;28;20096;-60
2023/09/28 09:19:11;;;;;;;272.23;251.07;;;;;;;;;;5031046;28;20021;-61
2023/09/28 09:21:40;;;;;;;268.52;249.07;;;;;;;;;;5013265;28;20029;-61
2023/09/28 09:24:10;;;;;;;247.82;230.57;;;;;;;;;;5011793;28;20098;-60
2023/09/28 09:26:42;;;;;;;273.00;251.30;;;;;;;;;;5019035;28;20026;-60
2023/09/28 09:29:08;;;;;;;263.02;240.30;;;;;;;;;;5011369;28;20025;-61
2023/09/28 09:31:33;;;;;;;246.98;227.40;;;;;;;;;;5011841;28;20034;-59
2023/09/28 09:34:01;;;;;;;232.60;217.07;;;;;;;;;;5012042;28;20449;-58
2023/09/28 09:36:27;;;;;;;233.75;216.30;;;;;;;;;;5011673;28;20030;-58
2023/09/28 09:38:53;;;;;;;;;;;;;;;;;;5012113;28;20049;-59
2023/09/28 09:41:18;;;;;;;212.50;197.30;;;;;;;;;;5016100;28;19961;-59
2023/09/28 09:43:43;;;;;;;136.40;126.87;;;;;;;;;;5025485;28;20100;-59
2023/09/28 09:46:09;;;;;;;287.33;265.27;;;;;;;;;;5031208;28;20539;-60
2023/09/28 09:48:53;;;;;;;320.52;295.38;;;;;;;;;;4998507;28;20036;-60
2023/09/28 09:51:18;;;;;;;186.43;173.00;;;;;;;;;;5012425;28;20029;-58
2023/09/28 09:53:44;;;;;;;218.07;203.07;;;;;;;;;;5022606;28;20021;-59
2023/09/28 09:56:10;;;;;;;211.68;197.05;;;;;;;;;;5031201;28;20018;-61
2023/09/28 09:58:42;;;;;;;245.43;226.63;;;;;;;;;;5031285;28;20036;-58
2023/09/28 10:01:14;;;;;;;199.30;186.50;;;;;;;;;;5030574;28;20370;-59
2023/09/28 10:03:42;;;;;;;265.70;246.88;;;;;;;;;;5017479;28;20464;-59
2023/09/28 10:06:09;;;;;;;225.10;208.68;;;;;;;;;;5020671;28;20033;-61
2023/09/28 10:08:34;;;;;;;297.00;272.38;;;;;;;;;;5025252;28;20068;-59
2023/09/28 10:11:01;;;;;;;294.63;273.55;;;;;;;;;;5010432;28;20449;-59
2023/09/28 10:13:27;;;;;;;378.17;348.92;;;;;;;;;;5011194;28;20068;-60
2023/09/28 10:15:53;;;;;;;316.63;287.58;;;;;;;;;;5008536;28;20037;-60
2023/09/28 10:18:19;;;;;;;295.90;273.58;;;;;;;;;;5005908;28;20036;-60
2023/09/28 10:20:44;;;;;;;274.88;255.40;;;;;;;;;;5010629;28;20477;-60
2023/09/28 10:23:23;;;;;;;392.45;362.92;;;;;;;;;;5007364;28;20397;-61
2023/09/28 10:26:18;;;;;;;268.92;247.85;;;;;;;;;;5010470;28;20022;-60
2023/09/28 10:29:05;;;;;;;261.98;242.88;;;;;;;;;;5001901;28;20048;-59
2023/09/28 10:31:31;;;;;;;299.85;277.45;;;;;;;;;;5010540;28;20041;-61
2023/09/28 10:33:58;;;;;;;264.23;243.10;;;;;;;;;;5010656;28;20478;-61
2023/09/28 10:36:23;;;;;;;239.48;222.50;;;;;;;;;;5010487;28;20026;-61
2023/09/28 10:39:04;;;;;;;302.53;281.30;;;;;;;;;;5009786;28;20076;-59
2023/09/28 10:41:30;;;;;;;246.88;227.82;;;;;;;;;;5002853;28;20457;-59
2023/09/28 10:43:55;;;;;;;256.67;237.38;;;;;;;;;;5010378;28;20025;-61
2023/09/28 10:46:21;;;;;;;322.70;298.65;;;;;;;;;;5010338;28;20105;-60
2023/09/28 10:48:46;;;;;;;314.37;287.93;;;;;;;;;;5010156;28;20024;-59
2023/09/28 10:51:12;;;;;;;329.88;302.05;;;;;;;;;;5010240;28;20032;-60
2023/09/28 10:53:37;;;;;;;344.23;319.88;;;;;;;;;;5010545;28;20018;-58
2023/09/28 10:56:03;;;;;;;294.80;271.17;;;;;;;;;;5007546;28;20670;-59
2023/09/28 10:58:29;;;;;;;281.92;261.25;;;;;;;;;;5009048;28;20438;-60
2023/09/28 11:00:55;;;;;;;361.42;331.33;;;;;;;;;;5003273;28;20065;-59
2023/09/28 11:03:22;;;;;;;333.40;305.95;;;;;;;;;;5003744;28;20024;-59
2023/09/28 11:05:47;;;;;;;327.98;302.95;;;;;;;;;;5020811;28;20389;-59
2023/09/28 11:08:14;;;;;;;398.27;368.40;;;;;;;;;;5015586;28;20093;-59
2023/09/28 11:10:40;;;;;;;296.73;275.40;;;;;;;;;;5023893;28;20027;-61
2023/09/28 11:13:05;;;;;;;345.52;317.30;;;;;;;;;;5025762;28;20093;-59
2023/09/28 11:15:30;;;;;;;353.07;327.87;;;;;;;;;;5033138;28;20450;-58
2023/09/28 11:17:55;;;;;;;405.03;370.30;;;;;;;;;;5020849;28;20444;-59
2023/09/28 11:20:21;;;;;;;320.17;293.85;;;;;;;;;;5032180;28;21078;-58
2023/09/28 11:22:51;;;;;;;310.50;285.30;;;;;;;;;;5021982;28;20129;-59
2023/09/28 11:25:17;;;;;;;370.75;343.08;;;;;;;;;;5033691;28;20025;-60
2023/09/28 11:27:42;;;;;;;338.83;313.80;;;;;;;;;;5036315;28;20106;-59
2023/09/28 11:30:16;;;;;;;330.40;304.07;;;;;;;;;;5034882;28;20037;-59
2023/09/28 11:32:51;;;;;;;354.05;322.58;;;;;;;;;;5019776;28;20030;-58
2023/09/28 11:35:16;;;;;;;297.70;275.27;;;;;;;;;;5027465;28;20414;-59
2023/09/28 11:37:42;;;;;;;363.50;332.53;;;;;;;;;;5034338;28;20025;-58
2023/09/28 11:40:07;;;;;;;;;;;;;;;;;;5028136;28;20090;-58
2023/09/28 11:42:32;;;;;;;350.38;320.90;;;;;;;;;;5009911;28;19909;-59
2023/09/28 11:44:57;;;;;;;352.83;323.73;;;;;;;;;;5022113;28;20112;-59
2023/09/28 11:47:23;;;;;;;351.97;324.87;;;;;;;;;;5014918;28;20032;-60
2023/09/28 11:49:48;;;;;;;432.08;398.63;;;;;;;;;;5024391;28;20041;-60
2023/09/28 11:52:13;;;;;;;398.30;369.42;;;;;;;;;;5033082;28;20025;-59
2023/09/28 11:54:40;;;;;;;433.50;396.53;;;;;;;;;;5033528;28;20024;-60
2023/09/28 11:57:05;;;;;;;;;;;;;;;;;;5021542;28;20025;-59
2023/09/28 11:59:31;;;;;;;368.63;339.42;;;;;;;;;;5020187;28;19909;-60
2023/09/28 12:01:57;;;;;;;;;;;;;;;;;;5020705;28;20017;-60
2023/09/28 12:04:23;;;;;;;401.83;369.10;;;;;;;;;;5021177;28;19913;-58
2023/09/28 12:06:48;;;;;;;399.80;368.13;;;;;;;;;;5006118;28;20030;-60
2023/09/28 12:09:17;;;;;;;378.03;350.07;;;;;;;;;;5009031;28;20456;-60
2023/09/28 12:11:42;;;;;;;503.52;455.00;;;;;;;;;;5013484;28;20075;-60
2023/09/28 12:14:09;;;;;;;430.87;392.03;;;;;;;;;;5012112;28;20025;-62
2023/09/28 12:16:34;;;;;;;372.20;341.70;;;;;;;;;;5017002;28;20456;-61
2023/09/28 12:18:59;;;;;;;390.70;357.20;;;;;;;;;;5009530;28;20018;-60
2023/09/28 12:21:24;;;;;;;;;;;;;;;;;;5013471;28;20474;-60
2023/09/28 12:23:50;;;;;;;332.90;304.03;;;;;;;;;;5010916;28;19971;-61
2023/09/28 12:26:15;;;;;;;405.00;372.00;;;;;;;;;;5011146;28;20112;-59
2023/09/28 12:28:41;;;;;;;;;;;;;;;;;;5011595;28;20037;-61
2023/09/28 12:31:08;;;;;;;302.95;276.85;;;;;;;;;;5012307;28;19909;-61
2023/09/28 12:33:34;;;;;;;341.60;314.77;;;;;;;;;;5010498;28;20033;-59
2023/09/28 12:35:59;;;;;;;391.17;359.75;;;;;;;;;;5012630;28;20018;-60
2023/09/28 12:38:24;;;;;;;;;;;;;;;;;;5013536;28;20462;-61
2023/09/28 12:40:49;;;;;;;389.27;356.48;;;;;;;;;;5011312;28;20384;-59
2023/09/28 12:43:16;;;;;;;420.30;387.33;;;;;;;;;;5013083;28;20044;-60
2023/09/28 12:45:41;;;;;;;380.50;343.02;;;;;;;;;;5013448;28;20050;-60
2023/09/28 12:48:07;;;;;;;396.08;366.30;;;;;;;;;;5013695;28;20079;-60
2023/09/28 12:50:32;;;;;;;451.50;414.13;;;;;;;;;;5012190;28;20063;-60
2023/09/28 12:52:57;;;;;;;;;;;;;;;;;;5012932;28;20021;-61
2023/09/28 12:55:23;;;;;;;449.53;412.77;;;;;;;;;;5012435;28;19992;-59
2023/09/28 12:57:50;;;;;;;;;;;;;;;;;;5012860;28;20033;-59
2023/09/28 13:00:16;;;;;;;416.08;382.38;;;;;;;;;;5009545;28;19909;-60
2023/09/28 13:02:42;;;;;;;489.00;447.20;;;;;;;;;;5011894;28;20016;-62
2023/09/28 13:05:08;;;;;;;374.30;341.20;;;;;;;;;;5011978;28;20080;-61
2023/09/28 13:07:34;;;;;;;462.03;428.30;;;;;;;;;;5011973;28;20130;-61
2023/09/28 13:09:59;;;;;;;418.25;385.83;;;;;;;;;;5011368;28;20972;-59
2023/09/28 13:12:24;;;;;;;471.30;423.90;;;;;;;;;;5007458;28;20030;-60
2023/09/28 13:14:50;;;;;;;;;;;;;;;;;;5012176;28;20433;-62
2023/09/28 13:17:16;;;;;;;375.80;346.73;;;;;;;;;;5011544;28;19956;-59
2023/09/28 13:19:43;;;;;;;385.02;355.48;;;;;;;;;;5011565;28;20105;-60
2023/09/28 13:22:09;;;;;;;488.63;442.98;;;;;;;;;;5012118;28;20033;-60
2023/09/28 13:24:34;;;;;;;446.48;411.30;;;;;;;;;;5011716;28;20117;-60
2023/09/28 13:27:01;;;;;;;499.97;460.20;;;;;;;;;;5012901;28;20037;-59
2023/09/28 13:29:26;;;;;;;473.42;439.30;;;;;;;;;;5011892;28;20446;-61
2023/09/28 13:31:51;;;;;;;472.92;434.23;;;;;;;;;;5009616;28;20108;-59
2023/09/28 13:34:16;;;;;;;;;;;;;;;;;;5018776;28;20075;-60
2023/09/28 13:36:42;;;;;;;403.23;373.13;;;;;;;;;;5011361;28;19964;-60
2023/09/28 13:39:16;;;;;;;511.58;472.40;;;;;;;;;;5010836;28;20022;-61
2023/09/28 13:41:42;;;;;;;319.45;294.70;;;;;;;;;;5017009;28;20022;-58
2023/09/28 13:44:07;;;;;;;391.30;361.23;;;;;;;;;;5010521;28;20026;-58
2023/09/28 13:46:32;;;;;;;486.30;447.63;;;;;;;;;;5005721;28;20579;-59
2023/09/28 13:48:57;;;;;;;;;;;;;;;;;;5008872;28;20033;-60
2023/09/28 13:51:23;;;;;;;382.95;353.67;;;;;;;;;;5008885;28;19909;-59
2023/09/28 13:53:48;;;;;;;319.90;294.43;;;;;;;;;;5009297;28;20014;-59
2023/09/28 13:56:15;;;;;;;508.67;454.83;;;;;;;;;;5005673;28;20033;-60
2023/09/28 13:58:41;;;;;;;536.10;493.60;;;;;;;;;;5007358;28;20087;-57
2023/09/28 14:01:07;;;;;;;440.50;401.70;;;;;;;;;;5006892;28;20025;-59
2023/09/28 14:03:32;;;;;;;;;;;;;;;;;;5013453;28;20017;-61
2023/09/28 14:05:57;;;;;;;425.83;390.95;;;;;;;;;;5013725;28;19917;-61
2023/09/28 14:08:22;;;;;;;402.77;364.77;;;;;;;;;;5015193;28;20042;-59
2023/09/28 14:10:48;;;;;;;344.47;317.47;;;;;;;;;;5006585;28;20041;-59